Time;durP1;ratioP1;P1;durP2;ratioP2;P2;SDS_P1;SDS_P2;PMS_P1;PMS_P2;Temp;Humidity;BMP_temperature;BMP_pressure;BME280_temperature;BME280_humidity;BME280_pressure;Samples;Min_cycle;Max_cycle;Signal;HPM_P1;HPM_P2
2021/06/16 00:04:40;;;;;;;2.50;2.22;;;26.00;42.70;;;;;;10089427;28;20514;-55
2021/06/16 00:09:31;;;;;;;6.53;2.45;;;25.90;42.80;;;;;;10090291;28;20056;-54
2021/06/16 00:14:22;;;;;;;4.28;2.42;;;26.00;42.80;;;;;;10087690;28;20037;-53
2021/06/16 00:19:13;;;;;;;5.78;3.53;;;26.10;42.90;;;;;;10093046;28;20039;-56
2021/06/16 00:24:04;;;;;;;6.35;2.92;;;25.90;43.20;;;;;;10087047;28;20064;-52
2021/06/16 00:28:55;;;;;;;3.67;3.03;;;25.80;43.70;;;;;;10086301;28;20108;-54
2021/06/16 00:33:47;;;;;;;3.47;2.60;;;25.90;43.70;;;;;;10089325;28;20030;-54
2021/06/16 00:38:37;;;;;;;4.40;2.80;;;26.00;44.00;;;;;;10085788;28;20033;-53
2021/06/16 00:43:28;;;;;;;4.50;2.92;;;25.90;44.40;;;;;;10088522;28;20037;-54
2021/06/16 00:48:19;;;;;;;6.47;2.47;;;25.90;44.30;;;;;;10086974;28;20059;-58
2021/06/16 00:53:10;;;;;;;4.38;2.72;;;25.80;44.80;;;;;;10085301;28;20492;-55
2021/06/16 00:58:00;;;;;;;5.07;3.45;;;25.80;45.10;;;;;;10088387;28;20123;-55
2021/06/16 01:03:07;;;;;;;4.25;3.10;;;25.50;45.30;;;;;;10084344;28;20669;-54
2021/06/16 01:08:01;;;;;;;4.03;3.08;;;25.50;46.00;;;;;;10086371;28;20049;-53
2021/06/16 01:13:04;;;;;;;5.15;2.90;;;25.50;46.20;;;;;;10087049;28;20075;-54
2021/06/16 01:18:00;;;;;;;5.05;3.20;;;25.40;46.80;;;;;;10084159;28;20552;-54
2021/06/16 01:23:12;;;;;;;6.07;2.60;;;25.40;46.80;;;;;;10087405;28;20561;-57
2021/06/16 01:28:04;;;;;;;10.10;3.63;;;25.40;47.40;;;;;;10082737;28;20033;-56
2021/06/16 01:32:56;;;;;;;4.57;3.75;;;25.20;47.40;;;;;;10069884;28;20244;-57
2021/06/16 01:37:47;;;;;;;3.15;2.85;;;25.30;47.40;;;;;;10085450;28;20029;-55
2021/06/16 01:42:39;;;;;;;4.88;3.60;;;25.10;47.90;;;;;;10086151;28;20059;-58
2021/06/16 01:47:30;;;;;;;5.90;3.72;;;25.10;48.20;;;;;;10085934;28;20064;-59
2021/06/16 01:52:24;;;;;;;4.32;2.90;;;24.90;48.40;;;;;;10084891;28;20504;-58
2021/06/16 01:57:15;;;;;;;4.53;3.40;;;24.80;48.90;;;;;;10087149;28;20124;-56
2021/06/16 02:02:06;;;;;;;7.15;3.97;;;24.80;49.30;;;;;;10084958;28;20479;-58
2021/06/16 02:07:27;;;;;;;4.90;3.45;;;24.70;49.50;;;;;;10084903;28;20045;-60
2021/06/16 02:12:19;;;;;;;4.35;3.58;;;24.60;50.30;;;;;;10084368;28;20044;-57
2021/06/16 02:17:12;;;;;;;5.32;3.08;;;24.60;50.10;;;;;;10080891;28;20100;-54
2021/06/16 02:22:06;;;;;;;4.72;3.35;;;24.50;50.30;;;;;;10085940;28;20040;-56
2021/06/16 02:26:56;;;;;;;6.90;3.50;;;24.40;50.60;;;;;;10082211;28;20039;-56
2021/06/16 02:31:47;;;;;;;5.97;3.88;;;24.30;50.70;;;;;;10087476;28;20372;-55
2021/06/16 02:36:43;;;;;;;4.38;2.92;;;24.30;51.00;;;;;;10078225;28;20031;-53
2021/06/16 02:41:35;;;;;;;5.65;3.85;;;24.30;51.10;;;;;;10081475;28;20181;-54
2021/06/16 02:46:29;;;;;;;4.78;3.95;;;24.00;51.60;;;;;;10079767;28;20028;-55
2021/06/16 02:51:20;;;;;;;7.60;3.78;;;24.00;52.00;;;;;;10081411;28;20402;-56
2021/06/16 02:56:12;;;;;;;5.28;3.80;;;23.90;52.00;;;;;;10082605;28;20403;-54
2021/06/16 03:01:04;;;;;;;7.35;4.03;;;24.00;51.90;;;;;;10080012;28;20041;-51
2021/06/16 03:05:57;;;;;;;6.90;3.47;;;23.90;52.00;;;;;;10079084;28;20076;-54
2021/06/16 03:10:49;;;;;;;4.63;3.65;;;23.90;52.30;;;;;;10084137;28;20064;-54
2021/06/16 03:15:42;;;;;;;6.07;3.55;;;23.90;52.20;;;;;;10081342;28;20513;-52
2021/06/16 03:20:34;;;;;;;6.78;3.85;;;23.80;52.40;;;;;;10082483;28;20486;-55
2021/06/16 03:25:25;;;;;;;5.43;3.38;;;23.80;52.50;;;;;;10082360;28;20064;-55
2021/06/16 03:30:19;;;;;;;7.57;3.58;;;23.80;52.60;;;;;;10081346;28;20036;-52
2021/06/16 03:35:10;;;;;;;5.90;3.90;;;23.70;52.70;;;;;;10082390;28;20032;-54
2021/06/16 03:40:01;;;;;;;6.88;3.50;;;23.70;52.80;;;;;;10081323;28;20845;-57
2021/06/16 03:44:54;;;;;;;5.93;4.93;;;23.70;52.80;;;;;;10082983;28;20061;-54
2021/06/16 03:49:46;;;;;;;6.60;4.07;;;23.60;53.10;;;;;;10081969;28;20045;-54
2021/06/16 03:54:38;;;;;;;7.43;4.43;;;23.50;53.80;;;;;;10081133;28;20032;-57
2021/06/16 03:59:29;;;;;;;6.85;4.45;;;23.60;53.50;;;;;;10081882;28;20403;-54
2021/06/16 04:04:22;;;;;;;8.60;3.92;;;23.60;53.70;;;;;;10083200;28;20055;-54
2021/06/16 04:09:15;;;;;;;8.52;4.82;;;23.50;54.20;;;;;;10081992;28;20041;-56
2021/06/16 04:14:06;;;;;;;9.63;5.15;;;23.60;54.20;;;;;;10082915;28;20329;-56
2021/06/16 04:18:57;;;;;;;7.38;5.38;;;23.60;54.30;;;;;;10087787;28;20067;-58
2021/06/16 04:23:49;;;;;;;9.77;5.30;;;23.50;54.50;;;;;;10080801;28;20592;-54
2021/06/16 04:28:40;;;;;;;4.95;4.35;;;23.30;55.10;;;;;;10082481;28;20039;-55
2021/06/16 04:33:32;;;;;;;7.13;4.72;;;23.40;55.00;;;;;;10081934;28;20025;-54
2021/06/16 04:38:23;;;;;;;8.40;4.18;;;23.40;55.00;;;;;;10085784;28;20209;-53
2021/06/16 04:43:13;;;;;;;5.97;5.18;;;23.40;55.20;;;;;;10089715;28;20037;-57
2021/06/16 04:48:05;;;;;;;6.40;4.65;;;23.40;55.50;;;;;;10089989;28;20029;-53
2021/06/16 04:52:56;;;;;;;7.15;5.03;;;23.40;55.70;;;;;;10090274;28;20539;-54
2021/06/16 04:57:47;;;;;;;7.90;5.18;;;23.30;55.80;;;;;;10087604;28;20025;-56
2021/06/16 05:02:37;;;;;;;7.63;5.28;;;23.30;56.00;;;;;;10088161;28;20340;-55
2021/06/16 05:07:28;;;;;;;7.57;5.28;;;23.30;56.10;;;;;;10085124;28;20353;-56
2021/06/16 05:12:19;;;;;;;7.85;6.00;;;23.40;56.20;;;;;;10087773;28;20025;-57
2021/06/16 05:17:10;;;;;;;8.93;5.43;;;23.30;56.20;;;;;;10092918;28;20029;-55
2021/06/16 05:22:20;;;;;;;8.00;5.50;;;23.40;56.20;;;;;;10084501;28;20483;-53
2021/06/16 05:27:14;;;;;;;7.75;5.93;;;23.20;56.90;;;;;;10079831;28;20064;-51
2021/06/16 05:32:05;;;;;;;7.67;4.43;;;23.30;56.50;;;;;;10085445;28;20053;-56
2021/06/16 05:36:56;;;;;;;7.30;5.05;;;23.30;56.40;;;;;;10086162;28;20079;-57
2021/06/16 05:41:48;;;;;;;8.05;4.55;;;23.40;56.40;;;;;;10086652;28;20103;-56
2021/06/16 05:46:39;;;;;;;6.38;4.18;;;23.50;56.00;;;;;;10083701;28;20041;-55
2021/06/16 05:51:30;;;;;;;8.13;4.75;;;23.50;55.90;;;;;;10085293;28;20548;-56
2021/06/16 05:56:21;;;;;;;7.00;4.53;;;23.50;56.10;;;;;;10084800;28;21119;-57
2021/06/16 06:01:11;;;;;;;8.20;5.00;;;23.60;55.80;;;;;;10085646;28;20677;-54
2021/06/16 06:06:03;;;;;;;6.78;4.72;;;23.70;55.90;;;;;;10078002;28;20321;-54
2021/06/16 06:10:56;;;;;;;8.75;5.32;;;23.70;55.80;;;;;;10081639;28;20037;-54
2021/06/16 06:15:48;;;;;;;6.55;4.57;;;23.80;55.70;;;;;;10084696;28;20025;-50
2021/06/16 06:20:39;;;;;;;5.95;4.28;;;23.80;55.90;;;;;;10082658;28;20558;-52
2021/06/16 06:25:29;;;;;;;8.60;5.25;;;23.90;55.80;;;;;;10083516;28;20112;-53
2021/06/16 06:30:20;;;;;;;7.70;4.57;;;23.90;55.80;;;;;;10083730;28;20068;-57
2021/06/16 06:35:12;;;;;;;7.15;4.68;;;24.00;55.60;;;;;;10083428;28;20067;-55
2021/06/16 06:40:04;;;;;;;9.45;4.97;;;24.10;55.20;;;;;;10081494;28;20053;-55
2021/06/16 06:44:55;;;;;;;6.57;4.80;;;24.10;55.10;;;;;;10082262;28;20502;-54
2021/06/16 06:49:45;;;;;;;7.68;5.53;;;24.20;55.10;;;;;;10070688;28;20009;-54
2021/06/16 06:54:37;;;;;;;8.02;5.63;;;24.30;55.20;;;;;;10083123;28;20236;-57
2021/06/16 06:59:27;;;;;;;8.32;5.35;;;24.30;54.90;;;;;;10081831;28;20562;-58
2021/06/16 07:04:18;;;;;;;9.68;5.60;;;24.30;55.00;;;;;;10083844;28;20052;-56
2021/06/16 07:09:09;;;;;;;8.60;4.72;;;24.50;54.70;;;;;;10081812;28;20074;-56
2021/06/16 07:14:00;;;;;;;7.75;5.43;;;24.40;54.60;;;;;;10079178;28;20079;-57
2021/06/16 07:18:52;;;;;;;7.53;5.55;;;24.50;54.40;;;;;;10086047;28;20021;-56
2021/06/16 07:23:42;;;;;;;7.82;4.72;;;24.60;54.60;;;;;;10080346;28;20108;-57
2021/06/16 07:28:33;;;;;;;8.20;5.70;;;24.70;54.30;;;;;;10080532;28;20682;-58
2021/06/16 07:33:24;;;;;;;16.73;6.07;;;24.70;54.10;;;;;;10083431;28;20506;-58
2021/06/16 07:38:15;;;;;;;9.43;5.97;;;24.70;54.20;;;;;;10082333;28;20025;-56
2021/06/16 07:43:06;;;;;;;12.45;5.75;;;24.70;54.30;;;;;;10073973;28;20071;-57
2021/06/16 07:47:57;;;;;;;6.93;4.93;;;24.70;54.30;;;;;;10079491;28;20033;-52
2021/06/16 07:52:48;;;;;;;8.15;5.70;;;24.90;54.10;;;;;;10078690;28;20060;-53
2021/06/16 07:57:39;;;;;;;6.95;5.60;;;25.00;54.00;;;;;;10083302;28;20511;-54
2021/06/16 08:02:30;;;;;;;11.32;4.82;;;25.20;53.70;;;;;;10081198;28;20094;-57
2021/06/16 08:07:21;;;;;;;12.93;4.85;;;25.30;53.80;;;;;;10092511;28;20044;-59
2021/06/16 08:12:13;;;;;;;8.05;5.03;;;25.40;53.50;;;;;;10082946;28;20761;-56
2021/06/16 08:17:05;;;;;;;7.28;5.40;;;25.70;53.00;;;;;;10086385;28;20032;-57
2021/06/16 08:21:57;;;;;;;10.93;5.90;;;25.80;52.80;;;;;;10088432;28;20040;-57
2021/06/16 08:26:48;;;;;;;8.50;4.35;;;26.00;52.30;;;;;;10087867;28;20025;-57
2021/06/16 08:31:39;;;;;;;5.78;4.10;;;26.10;52.30;;;;;;10088889;28;20029;-57
2021/06/16 08:36:29;;;;;;;6.93;4.68;;;26.20;51.90;;;;;;10089576;28;20487;-57
2021/06/16 08:41:21;;;;;;;6.75;5.13;;;26.20;51.60;;;;;;10086318;28;20032;-55
2021/06/16 08:46:14;;;;;;;6.30;4.30;;;26.30;52.20;;;;;;10089570;28;20122;-58
2021/06/16 08:51:06;;;;;;;10.40;4.55;;;26.30;51.10;;;;;;10086981;28;20039;-58
2021/06/16 08:55:57;;;;;;;6.55;4.03;;;26.50;50.70;;;;;;10088919;28;20036;-56
2021/06/16 09:00:47;;;;;;;6.80;3.75;;;26.60;50.30;;;;;;10088581;28;20037;-57
2021/06/16 09:05:40;;;;;;;5.65;3.70;;;26.70;49.90;;;;;;10089810;28;20533;-56
2021/06/16 09:10:32;;;;;;;7.45;4.22;;;26.70;49.40;;;;;;10089847;28;20186;-57
2021/06/16 09:15:29;;;;;;;8.15;3.78;;;26.90;49.10;;;;;;10085619;28;21305;-59
2021/06/16 09:20:24;;;;;;;7.63;4.20;;;27.00;48.60;;;;;;10084648;28;20100;-58
2021/06/16 09:25:22;;;;;;;6.78;3.90;;;27.10;48.10;;;;;;10088520;28;20492;-54
2021/06/16 09:30:19;;;;;;;5.82;3.72;;;27.30;47.50;;;;;;10087694;28;20031;-57
2021/06/16 09:35:27;;;;;;;5.63;3.50;;;27.40;47.40;;;;;;10087174;28;20422;-55
2021/06/16 09:40:26;;;;;;;8.40;4.30;;;27.50;47.10;;;;;;10085108;28;20098;-56
2021/06/16 09:45:17;;;;;;;9.57;4.78;;;27.60;46.90;;;;;;10082391;28;20488;-55
2021/06/16 09:50:08;;;;;;;6.25;3.67;;;27.80;46.80;;;;;;10087294;28;20028;-57
2021/06/16 09:55:22;;;;;;;6.88;3.92;;;28.00;46.60;;;;;;10085207;28;20427;-56
2021/06/16 10:00:13;;;;;;;6.82;3.85;;;28.10;46.50;;;;;;10085684;28;20489;-56
2021/06/16 10:05:04;;;;;;;5.35;4.63;;;28.00;46.40;;;;;;10086965;28;20498;-56
2021/06/16 10:10:03;;;;;;;6.00;3.97;;;28.10;46.20;;;;;;10085718;28;21284;-58
2021/06/16 10:14:55;;;;;;;10.05;4.45;;;28.30;45.90;;;;;;10082047;28;20037;-62
2021/06/16 10:19:46;;;;;;;5.20;3.72;;;28.50;46.10;;;;;;10086775;28;20041;-56
2021/06/16 10:24:38;;;;;;;6.82;3.60;;;28.70;45.10;;;;;;10087811;28;20052;-58
2021/06/16 10:29:35;;;;;;;4.50;3.72;;;28.80;44.70;;;;;;10087053;28;20507;-56
2021/06/16 10:34:26;;;;;;;6.90;3.53;;;28.90;44.30;;;;;;10083866;28;20035;-61
2021/06/16 10:39:17;;;;;;;4.25;3.67;;;29.00;44.20;;;;;;10080151;28;20476;-58
2021/06/16 10:44:16;;;;;;;5.82;3.45;;;29.10;43.90;;;;;;10082116;28;20503;-56
2021/06/16 10:49:07;;;;;;;5.30;3.83;;;29.10;43.50;;;;;;10085458;28;20040;-58
2021/06/16 10:54:21;;;;;;;4.55;2.75;;;29.30;43.20;;;;;;10080479;28;20047;-55
2021/06/16 10:59:13;;;;;;;6.47;4.10;;;29.40;42.30;;;;;;10084009;28;20036;-55
2021/06/16 11:04:04;;;;;;;7.65;3.50;;;29.50;42.20;;;;;;10081628;28;20051;-58
2021/06/16 11:08:54;;;;;;;7.18;2.90;;;29.70;41.80;;;;;;10084617;28;20826;-56
2021/06/16 11:13:45;;;;;;;5.20;2.75;;;29.70;41.40;;;;;;10083245;28;20036;-57
2021/06/16 11:18:36;;;;;;;3.47;2.65;;;29.70;41.00;;;;;;10084083;28;20503;-57
2021/06/16 11:23:29;;;;;;;5.75;3.38;;;29.80;40.40;;;;;;10086838;28;20089;-54
2021/06/16 11:28:21;;;;;;;2.50;2.30;;;30.00;39.80;;;;;;10081275;28;20402;-55
2021/06/16 11:33:12;;;;;;;4.03;2.67;;;30.20;39.50;;;;;;10082470;28;20535;-57
2021/06/16 11:38:03;;;;;;;4.43;2.65;;;30.10;39.40;;;;;;10078803;28;20090;-57
2021/06/16 11:42:53;;;;;;;4.68;3.03;;;30.10;39.20;;;;;;10082201;28;20834;-54
2021/06/16 11:47:55;;;;;;;4.45;3.50;;;30.10;39.40;;;;;;10077228;28;20337;-54
2021/06/16 11:53:06;;;;;;;5.03;2.67;;;30.20;39.00;;;;;;10076545;28;20033;-56
2021/06/16 11:57:56;;;;;;;4.70;2.72;;;30.30;38.10;;;;;;10081294;28;20080;-56
2021/06/16 12:02:47;;;;;;;5.70;2.70;;;30.50;38.30;;;;;;10084920;28;20064;-56
2021/06/16 12:07:44;;;;;;;4.43;2.65;;;31.00;37.30;;;;;;10078181;28;20056;-56
2021/06/16 12:12:52;;;;;;;5.07;2.78;;;31.10;37.10;;;;;;10084486;28;20104;-58
2021/06/16 12:18:06;;;;;;;5.15;3.10;;;31.70;36.80;;;;;;10085402;28;20028;-57
2021/06/16 12:22:58;;;;;;;6.63;2.97;;;32.20;36.80;;;;;;10080555;28;20091;-56
2021/06/16 12:27:49;;;;;;;4.10;2.17;;;32.70;36.80;;;;;;10080786;28;20036;-58
2021/06/16 12:32:44;;;;;;;3.15;1.88;;;33.30;36.00;;;;;;10083859;28;20047;-57
2021/06/16 12:37:55;;;;;;;4.20;1.83;;;33.60;35.60;;;;;;10078759;28;20028;-56
2021/06/16 12:42:48;;;;;;;1.58;1.35;;;34.30;34.00;;;;;;10082015;28;20116;-56
2021/06/16 12:47:38;;;;;;;2.95;1.40;;;34.90;33.40;;;;;;10079000;28;20563;-58
2021/06/16 12:52:34;;;;;;;3.70;2.00;;;35.50;31.80;;;;;;10079667;28;20029;-58
2021/06/16 12:57:24;;;;;;;1.70;1.40;;;36.20;30.70;;;;;;10083058;28;20457;-58
2021/06/16 13:02:34;;;;;;;2.63;1.50;;;36.70;29.80;;;;;;10085372;28;20556;-58
2021/06/16 13:07:43;;;;;;;2.05;1.70;;;37.80;28.70;;;;;;10085876;28;20110;-59
2021/06/16 13:12:35;;;;;;;2.35;1.45;;;38.80;27.70;;;;;;10079699;28;20049;-58
2021/06/16 13:17:26;;;;;;;1.75;1.10;;;39.30;26.80;;;;;;10087396;28;20037;-57
2021/06/16 13:22:17;;;;;;;2.15;1.30;;;40.00;26.10;;;;;;10086958;28;20040;-58
2021/06/16 13:27:07;;;;;;;4.32;1.65;;;40.50;25.30;;;;;;10082111;28;20078;-58
2021/06/16 13:31:58;;;;;;;2.13;1.83;;;40.80;25.10;;;;;;10087635;28;20037;-58
2021/06/16 13:36:50;;;;;;;1.80;1.60;;;41.20;24.60;;;;;;10083198;28;20071;-58
2021/06/16 13:41:59;;;;;;;1.88;1.58;;;41.70;24.10;;;;;;10083693;28;20051;-57
2021/06/16 13:46:50;;;;;;;;;;;41.80;23.30;;;;;;10081029;28;20168;-59
2021/06/16 13:51:41;;;;;;;1.90;1.50;;;41.80;23.50;;;;;;10083339;28;19908;-59
2021/06/16 13:56:32;;;;;;;1.98;1.48;;;41.60;23.60;;;;;;10083763;28;20017;-59
2021/06/16 14:01:22;;;;;;;1.60;1.50;;;42.00;23.00;;;;;;10086879;28;20044;-59
2021/06/16 14:06:13;;;;;;;1.23;1.13;;;42.10;22.70;;;;;;10083746;28;20029;-58
2021/06/16 14:11:04;;;;;;;2.00;1.77;;;41.90;22.30;;;;;;10084753;28;20043;-56
2021/06/16 14:15:55;;;;;;;2.20;1.60;;;42.40;22.10;;;;;;10084895;28;20052;-58
2021/06/16 14:20:46;;;;;;;1.92;1.65;;;42.50;21.90;;;;;;10083273;28;20033;-58
2021/06/16 14:25:37;;;;;;;1.58;1.48;;;42.50;21.80;;;;;;10086528;28;20538;-59
2021/06/16 14:30:28;;;;;;;1.30;1.20;;;42.90;21.60;;;;;;10081622;28;20006;-57
2021/06/16 14:35:20;;;;;;;1.48;1.38;;;42.90;21.30;;;;;;10083775;28;20033;-58
2021/06/16 14:40:13;;;;;;;1.20;1.15;;;42.50;20.90;;;;;;10084141;28;20037;-58
2021/06/16 14:45:05;;;;;;;1.67;1.27;;;42.30;20.40;;;;;;10084999;28;20423;-59
2021/06/16 14:49:55;;;;;;;1.98;1.25;;;42.50;20.00;;;;;;10076318;28;20672;-57
2021/06/16 14:54:47;;;;;;;3.10;1.20;;;42.70;19.60;;;;;;10082471;28;20108;-58
2021/06/16 14:59:38;;;;;;;2.75;1.30;;;42.80;19.40;;;;;;10082450;28;20136;-59
2021/06/16 15:04:29;;;;;;;1.70;1.60;;;42.30;19.40;;;;;;10080898;28;20040;-57
2021/06/16 15:09:20;;;;;;;2.08;1.20;;;42.40;19.50;;;;;;10083470;28;20071;-58
2021/06/16 15:14:11;;;;;;;1.30;1.20;;;42.60;19.20;;;;;;10081242;28;20688;-57
2021/06/16 15:19:01;;;;;;;1.30;1.20;;;43.00;19.10;;;;;;10086511;28;20043;-58
2021/06/16 15:23:52;;;;;;;1.70;1.60;;;43.20;19.20;;;;;;10080082;28;20126;-57
2021/06/16 15:28:44;;;;;;;1.88;1.67;;;43.80;19.30;;;;;;10083730;28;20337;-57
2021/06/16 15:33:35;;;;;;;2.10;1.58;;;44.00;19.60;;;;;;10082764;28;20559;-58
2021/06/16 15:38:25;;;;;;;1.70;1.58;;;43.80;19.70;;;;;;10081905;28;20116;-57
2021/06/16 15:43:16;;;;;;;2.72;2.53;;;44.00;19.90;;;;;;10080708;28;20029;-59
2021/06/16 15:48:12;;;;;;;2.47;2.28;;;44.50;20.00;;;;;;10082221;28;20053;-59
2021/06/16 15:53:05;;;;;;;2.53;2.33;;;44.40;20.00;;;;;;10083536;28;20053;-58
2021/06/16 15:57:56;;;;;;;2.30;1.83;;;44.80;20.00;;;;;;10079605;28;20479;-58
2021/06/16 16:02:48;;;;;;;2.17;2.08;;;44.80;20.00;;;;;;10082767;28;20032;-57
2021/06/16 16:07:39;;;;;;;1.95;1.58;;;44.70;19.90;;;;;;10081981;28;20143;-58
2021/06/16 16:12:30;;;;;;;1.85;1.73;;;44.90;20.00;;;;;;10082701;28;20060;-59
2021/06/16 16:17:21;;;;;;;3.08;2.25;;;45.30;19.80;;;;;;10078637;28;20032;-58
2021/06/16 16:22:12;;;;;;;2.60;2.40;;;45.70;19.70;;;;;;10080859;28;20388;-57
2021/06/16 16:27:03;;;;;;;2.10;1.77;;;45.50;19.60;;;;;;10079765;28;20127;-58
2021/06/16 16:31:54;;;;;;;2.22;2.13;;;46.10;19.70;;;;;;10078092;28;20507;-59
2021/06/16 16:36:45;;;;;;;2.50;2.30;;;46.70;19.70;;;;;;10086480;28;20040;-59
2021/06/16 16:41:35;;;;;;;2.28;2.08;;;47.40;19.60;;;;;;10086392;28;20313;-59
2021/06/16 16:46:26;;;;;;;2.42;2.22;;;48.10;19.60;;;;;;10090196;28;20029;-59
2021/06/16 16:51:18;;;;;;;2.40;2.20;;;47.90;19.60;;;;;;10080910;28;20055;-60
2021/06/16 16:56:08;;;;;;;2.90;2.50;;;48.30;20.10;;;;;;10087901;28;20514;-58
2021/06/16 17:00:59;;;;;;;2.72;2.53;;;48.70;19.70;;;;;;10086013;28;20272;-58
2021/06/16 17:05:50;;;;;;;2.90;2.70;;;47.90;19.90;;;;;;10089540;28;20121;-58
2021/06/16 17:10:41;;;;;;;3.38;2.78;;;48.30;19.90;;;;;;10086287;28;20040;-58
2021/06/16 17:15:32;;;;;;;3.05;2.13;;;47.80;20.10;;;;;;10087344;28;20028;-58
2021/06/16 17:20:25;;;;;;;4.50;2.33;;;48.30;20.00;;;;;;10092658;28;20037;-58
2021/06/16 17:25:18;;;;;;;3.53;2.38;;;47.50;20.10;;;;;;10083705;28;20091;-57
2021/06/16 17:30:11;;;;;;;2.30;2.10;;;47.20;20.20;;;;;;10088572;28;20044;-58
2021/06/16 17:35:03;;;;;;;2.75;2.50;;;46.80;20.40;;;;;;10085669;28;20021;-58
2021/06/16 17:39:54;;;;;;;2.42;2.22;;;46.50;20.60;;;;;;10087855;28;20091;-58
2021/06/16 17:44:45;;;;;;;3.65;2.25;;;46.20;20.70;;;;;;10083053;28;20107;-59
2021/06/16 17:49:37;;;;;;;2.38;1.67;;;45.30;21.00;;;;;;10086011;28;20031;-58
2021/06/16 17:54:28;;;;;;;3.08;2.08;;;44.90;21.40;;;;;;10085436;28;20029;-59
2021/06/16 17:59:18;;;;;;;2.00;1.80;;;44.10;21.50;;;;;;10085686;28;20034;-58
2021/06/16 18:04:10;;;;;;;2.30;1.70;;;43.00;21.80;;;;;;10095831;28;20155;-58
2021/06/16 18:09:01;;;;;;;2.25;1.77;;;40.70;22.50;;;;;;10083243;28;20056;-58
2021/06/16 18:13:52;;;;;;;4.18;1.73;;;38.80;23.30;;;;;;10086888;28;20017;-58
2021/06/16 18:18:48;;;;;;;3.35;1.55;;;37.80;23.60;;;;;;10083555;28;20112;-57
2021/06/16 18:23:39;;;;;;;1.70;1.58;;;36.90;23.70;;;;;;10083109;28;20140;-57
2021/06/16 18:28:30;;;;;;;2.70;1.90;;;36.50;23.80;;;;;;10082416;28;20475;-59
2021/06/16 18:33:20;;;;;;;2.28;1.65;;;36.10;23.90;;;;;;10083442;28;20021;-57
2021/06/16 18:38:12;;;;;;;2.38;1.60;;;36.00;24.00;;;;;;10083172;28;20391;-59
2021/06/16 18:43:03;;;;;;;1.80;1.65;;;35.80;24.20;;;;;;10083253;28;20052;-57
2021/06/16 18:47:59;;;;;;;3.05;1.20;;;35.50;24.40;;;;;;10082604;28;20616;-58
2021/06/16 18:52:50;;;;;;;4.22;2.60;;;35.40;24.50;;;;;;10079159;28;20033;-57
2021/06/16 18:57:42;;;;;;;3.85;2.25;;;35.30;24.60;;;;;;10082838;28;20044;-59
2021/06/16 19:02:44;;;;;;;2.63;2.17;;;35.20;24.80;;;;;;10081927;28;20099;-58
2021/06/16 19:07:35;;;;;;;4.57;2.15;;;35.00;25.00;;;;;;10082615;28;20136;-57
2021/06/16 19:12:25;;;;;;;4.32;2.55;;;34.80;25.20;;;;;;10085687;28;20041;-61
2021/06/16 19:17:16;;;;;;;5.93;2.35;;;34.30;25.70;;;;;;10079826;28;20020;-60
2021/06/16 19:22:07;;;;;;;4.40;2.83;;;33.50;26.80;;;;;;10077864;28;20048;-64
2021/06/16 19:26:59;;;;;;;4.07;2.63;;;33.20;27.60;;;;;;10082654;28;20254;-60
2021/06/16 19:31:50;;;;;;;3.00;2.50;;;32.90;27.70;;;;;;10083977;28;20569;-58
2021/06/16 19:36:41;;;;;;;3.25;2.40;;;32.70;27.90;;;;;;10077659;28;20268;-60
2021/06/16 19:41:32;;;;;;;5.97;2.20;;;32.70;28.10;;;;;;10081193;28;20617;-60
2021/06/16 19:46:23;;;;;;;2.83;1.95;;;32.60;28.40;;;;;;10078346;28;20033;-58
2021/06/16 19:51:14;;;;;;;4.40;2.55;;;32.40;28.60;;;;;;10082388;28;20520;-60
2021/06/16 19:56:05;;;;;;;3.45;1.98;;;32.30;29.00;;;;;;10079989;28;20035;-60
2021/06/16 20:00:57;;;;;;;3.45;2.13;;;32.20;29.00;;;;;;10080767;28;20047;-60
2021/06/16 20:05:48;;;;;;;2.75;2.05;;;32.10;29.20;;;;;;10078503;28;20116;-61
2021/06/16 20:10:39;;;;;;;2.63;2.40;;;32.00;29.30;;;;;;10087477;28;20191;-61
2021/06/16 20:15:29;;;;;;;3.78;2.30;;;32.00;29.40;;;;;;10089701;28;20021;-59
2021/06/16 20:20:21;;;;;;;3.80;2.72;;;31.80;29.50;;;;;;10087398;28;20177;-60
2021/06/16 20:25:12;;;;;;;9.27;5.20;;;31.80;29.80;;;;;;10089111;28;20224;-62
2021/06/16 20:30:04;;;;;;;4.07;3.08;;;31.70;29.80;;;;;;10087422;28;21709;-60
2021/06/16 20:34:55;;;;;;;4.80;2.78;;;31.70;30.00;;;;;;10089671;28;20135;-61
2021/06/16 20:39:46;;;;;;;3.78;2.47;;;31.60;30.10;;;;;;10086705;28;20430;-60
2021/06/16 20:44:38;;;;;;;4.00;2.47;;;31.60;30.20;;;;;;10088469;28;20025;-59
2021/06/16 20:49:29;;;;;;;4.03;2.85;;;31.60;30.50;;;;;;10086148;28;20122;-60
2021/06/16 20:54:19;;;;;;;8.88;4.15;;;31.50;30.70;;;;;;10086363;28;20063;-61
2021/06/16 20:59:10;;;;;;;6.55;4.28;;;31.40;30.90;;;;;;10083630;28;20036;-59
2021/06/16 21:04:01;;;;;;;3.92;2.80;;;31.40;31.00;;;;;;10079213;28;20040;-60
2021/06/16 21:08:52;;;;;;;3.08;2.47;;;31.20;31.10;;;;;;10086548;28;20106;-60
2021/06/16 21:13:42;;;;;;;2.97;2.53;;;31.20;31.20;;;;;;10081717;28;20021;-60
2021/06/16 21:18:33;;;;;;;5.88;3.05;;;31.10;31.40;;;;;;10087367;28;20029;-60
2021/06/16 21:23:25;;;;;;;3.30;2.42;;;31.20;31.50;;;;;;10084504;28;20059;-60
2021/06/16 21:28:15;;;;;;;5.15;3.15;;;31.10;31.80;;;;;;10088928;28;20195;-59
2021/06/16 21:33:07;;;;;;;5.25;2.58;;;31.00;32.00;;;;;;10087252;28;20483;-60
2021/06/16 21:37:58;;;;;;;4.45;2.78;;;31.00;32.30;;;;;;10084323;28;20029;-60
2021/06/16 21:42:49;;;;;;;5.57;3.50;;;30.90;32.60;;;;;;10084555;28;20037;-60
2021/06/16 21:47:40;;;;;;;6.10;2.72;;;30.90;32.80;;;;;;10083964;28;20032;-59
2021/06/16 21:52:30;;;;;;;4.50;2.65;;;30.80;33.00;;;;;;10087033;28;20040;-60
2021/06/16 21:57:21;;;;;;;4.82;2.80;;;30.80;33.00;;;;;;10085371;28;20025;-60
2021/06/16 22:02:12;;;;;;;7.15;3.65;;;30.70;33.30;;;;;;10086676;28;20515;-60
2021/06/16 22:07:05;;;;;;;9.65;3.80;;;30.60;33.80;;;;;;10082650;28;20044;-59
2021/06/16 22:11:56;;;;;;;4.65;3.28;;;30.40;34.10;;;;;;10085275;28;20041;-60
2021/06/16 22:16:47;;;;;;;3.65;2.65;;;30.50;34.40;;;;;;10090552;28;20039;-59
2021/06/16 22:21:38;;;;;;;6.13;2.78;;;30.50;34.40;;;;;;10084427;28;20041;-60
2021/06/16 22:26:29;;;;;;;4.82;2.75;;;30.40;34.50;;;;;;10083754;28;20508;-60
2021/06/16 22:31:20;;;;;;;4.50;3.03;;;30.30;34.60;;;;;;10083076;28;20037;-60
2021/06/16 22:36:10;;;;;;;3.45;2.58;;;30.40;34.80;;;;;;10084723;28;20025;-59
2021/06/16 22:41:02;;;;;;;4.13;3.05;;;30.20;35.10;;;;;;10081336;28;20270;-60
2021/06/16 22:45:53;;;;;;;3.15;2.83;;;30.00;35.50;;;;;;10083413;28;20079;-59
2021/06/16 22:50:44;;;;;;;4.68;2.97;;;30.00;35.60;;;;;;10083390;28;20025;-60
2021/06/16 22:55:35;;;;;;;4.65;2.85;;;29.90;35.70;;;;;;10083364;28;20507;-59
2021/06/16 23:00:29;;;;;;;5.13;3.35;;;29.80;36.00;;;;;;10084589;28;20082;-59
2021/06/16 23:05:20;;;;;;;6.00;3.20;;;29.80;36.40;;;;;;10080436;28;20509;-60
2021/06/16 23:10:13;;;;;;;6.95;4.07;;;29.60;36.60;;;;;;10082210;28;20045;-60
2021/06/16 23:15:06;;;;;;;5.72;3.13;;;29.50;37.20;;;;;;10081836;28;20033;-61
2021/06/16 23:19:57;;;;;;;5.07;2.88;;;29.50;37.50;;;;;;10080554;28;20103;-60
2021/06/16 23:24:47;;;;;;;4.57;2.97;;;29.20;37.90;;;;;;10080513;28;20655;-60
2021/06/16 23:29:38;;;;;;;3.90;3.30;;;29.10;38.30;;;;;;10082691;28;20028;-60
2021/06/16 23:34:29;;;;;;;3.60;2.95;;;29.00;38.70;;;;;;10080959;28;20028;-61
2021/06/16 23:39:20;;;;;;;4.50;2.97;;;28.80;39.10;;;;;;10081996;28;20033;-60
2021/06/16 23:44:10;;;;;;;4.20;3.15;;;28.80;39.70;;;;;;10081333;28;20036;-60
2021/06/16 23:49:01;;;;;;;3.55;3.10;;;28.50;40.30;;;;;;10080863;28;20094;-60
2021/06/16 23:53:52;;;;;;;6.10;3.63;;;28.60;40.50;;;;;;10081493;28;20198;-60
2021/06/16 23:58:43;;;;;;;3.65;3.03;;;28.70;40.50;;;;;;10076666;28;20523;-60
